sensor_id;sensor_type;location;lat;lon;timestamp;pressure;altitude;pressure_sealevel;temperature;humidity
50057;BME280;36875;49.468;11.200;2023-02-02T00:01:40;98006.56;;;21.52;37.65
50057;BME280;36875;49.468;11.200;2023-02-02T00:04:05;98009.47;;;21.55;37.96
50057;BME280;36875;49.468;11.200;2023-02-02T00:06:32;98010.44;;;21.51;37.78
50057;BME280;36875;49.468;11.200;2023-02-02T00:08:59;97992.31;;;21.41;37.87
50057;BME280;36875;49.468;11.200;2023-02-02T00:11:25;97996.19;;;21.40;37.63
50057;BME280;36875;49.468;11.200;2023-02-02T00:13:51;97993.78;;;21.38;37.87
50057;BME280;36875;49.468;11.200;2023-02-02T00:16:39;98002.78;;;21.39;37.70
50057;BME280;36875;49.468;11.200;2023-02-02T00:19:07;97994.41;;;21.35;37.84
50057;BME280;36875;49.468;11.200;2023-02-02T00:21:33;97976.53;;;21.29;37.61
50057;BME280;36875;49.468;11.200;2023-02-02T00:23:59;97985.22;;;21.31;37.72
50057;BME280;36875;49.468;11.200;2023-02-02T00:26:24;97998.91;;;21.31;37.67
50057;BME280;36875;49.468;11.200;2023-02-02T00:28:50;97998.09;;;21.31;37.97
50057;BME280;36875;49.468;11.200;2023-02-02T00:31:16;97989.72;;;21.27;37.76
50057;BME280;36875;49.468;11.200;2023-02-02T00:33:45;97975.16;;;21.09;37.72
50057;BME280;36875;49.468;11.200;2023-02-02T00:36:10;97987.44;;;21.21;37.96
50057;BME280;36875;49.468;11.200;2023-02-02T00:38:36;97973.56;;;21.08;37.82
50057;BME280;36875;49.468;11.200;2023-02-02T00:41:02;97999.03;;;21.17;37.59
50057;BME280;36875;49.468;11.200;2023-02-02T00:43:27;97987.25;;;21.08;37.66
50057;BME280;36875;49.468;11.200;2023-02-02T00:45:53;97992.56;;;21.05;37.95
50057;BME280;36875;49.468;11.200;2023-02-02T00:48:18;98017.66;;;21.07;37.85
50057;BME280;36875;49.468;11.200;2023-02-02T00:50:45;98029.72;;;21.06;37.79
50057;BME280;36875;49.468;11.200;2023-02-02T00:53:11;98042.59;;;21.05;37.79
50057;BME280;36875;49.468;11.200;2023-02-02T00:55:36;98047.22;;;20.96;37.86
50057;BME280;36875;49.468;11.200;2023-02-02T00:58:02;98065.75;;;20.99;37.87
50057;BME280;36875;49.468;11.200;2023-02-02T01:00:27;98046.09;;;20.97;37.80
50057;BME280;36875;49.468;11.200;2023-02-02T01:02:53;98047.13;;;20.78;38.02
50057;BME280;36875;49.468;11.200;2023-02-02T01:05:20;98062.47;;;20.88;37.71
50057;BME280;36875;49.468;11.200;2023-02-02T01:07:47;98074.81;;;20.86;37.88
50057;BME280;36875;49.468;11.200;2023-02-02T01:10:14;98063.59;;;20.87;37.84
50057;BME280;36875;49.468;11.200;2023-02-02T01:12:40;98047.94;;;20.79;37.83
50057;BME280;36875;49.468;11.200;2023-02-02T01:15:06;98078.22;;;20.83;37.95
50057;BME280;36875;49.468;11.200;2023-02-02T01:17:32;98073.16;;;20.76;37.96
50057;BME280;36875;49.468;11.200;2023-02-02T01:19:58;98092.63;;;20.74;37.87
50057;BME280;36875;49.468;11.200;2023-02-02T01:22:24;98073.16;;;20.76;37.63
50057;BME280;36875;49.468;11.200;2023-02-02T01:24:50;98087.16;;;20.74;37.80
50057;BME280;36875;49.468;11.200;2023-02-02T01:27:16;98100.16;;;20.69;38.16
50057;BME280;36875;49.468;11.200;2023-02-02T01:29:42;98060.56;;;20.66;37.89
50057;BME280;36875;49.468;11.200;2023-02-02T01:32:08;98084.50;;;20.60;37.90
50057;BME280;36875;49.468;11.200;2023-02-02T01:34:33;98101.69;;;20.61;37.80
50057;BME280;36875;49.468;11.200;2023-02-02T01:36:59;98095.72;;;20.59;37.58
50057;BME280;36875;49.468;11.200;2023-02-02T01:39:25;98097.63;;;20.58;37.90
50057;BME280;36875;49.468;11.200;2023-02-02T01:41:51;98097.47;;;20.55;37.92
50057;BME280;36875;49.468;11.200;2023-02-02T01:47:35;98109.41;;;20.45;37.75
50057;BME280;36875;49.468;11.200;2023-02-02T01:50:02;98117.13;;;20.43;37.92
50057;BME280;36875;49.468;11.200;2023-02-02T01:52:29;98125.63;;;20.41;37.56
50057;BME280;36875;49.468;11.200;2023-02-02T01:55:02;98114.94;;;20.31;37.87
50057;BME280;36875;49.468;11.200;2023-02-02T01:57:35;98080.19;;;20.09;37.67
50057;BME280;36875;49.468;11.200;2023-02-02T02:00:05;98106.66;;;20.22;37.95
50057;BME280;36875;49.468;11.200;2023-02-02T02:02:32;98127.91;;;20.26;38.07
50057;BME280;36875;49.468;11.200;2023-02-02T02:04:58;98129.41;;;20.32;37.84
50057;BME280;36875;49.468;11.200;2023-02-02T02:07:26;98119.09;;;20.29;37.88
50057;BME280;36875;49.468;11.200;2023-02-02T02:09:51;98139.84;;;20.30;37.80
50057;BME280;36875;49.468;11.200;2023-02-02T02:12:17;98129.81;;;20.25;37.88
50057;BME280;36875;49.468;11.200;2023-02-02T02:14:45;98130.13;;;20.23;37.75
50057;BME280;36875;49.468;11.200;2023-02-02T02:17:51;98130.75;;;20.20;37.92
50057;BME280;36875;49.468;11.200;2023-02-02T02:20:55;98129.22;;;20.14;37.91
50057;BME280;36875;49.468;11.200;2023-02-02T02:23:48;98127.34;;;20.15;37.91
50057;BME280;36875;49.468;11.200;2023-02-02T02:32:39;98109.75;;;19.93;37.98
50057;BME280;36875;49.468;11.200;2023-02-02T02:35:12;98126.75;;;20.04;37.71
50057;BME280;36875;49.468;11.200;2023-02-02T02:37:46;98130.56;;;20.03;38.06
50057;BME280;36875;49.468;11.200;2023-02-02T02:40:21;98131.22;;;20.00;38.01
50057;BME280;36875;49.468;11.200;2023-02-02T02:42:53;98124.72;;;19.96;37.81
50057;BME280;36875;49.468;11.200;2023-02-02T02:45:21;98127.44;;;19.96;37.73
50057;BME280;36875;49.468;11.200;2023-02-02T02:47:50;98137.88;;;19.94;37.89
50057;BME280;36875;49.468;11.200;2023-02-02T02:50:16;98134.94;;;19.90;38.02
50057;BME280;36875;49.468;11.200;2023-02-02T02:52:42;98112.31;;;19.76;37.57
50057;BME280;36875;49.468;11.200;2023-02-02T02:55:08;98139.91;;;19.88;37.72
50057;BME280;36875;49.468;11.200;2023-02-02T02:58:01;98141.34;;;19.86;37.69
50057;BME280;36875;49.468;11.200;2023-02-02T03:00:41;98086.69;;;19.44;37.88
50057;BME280;36875;49.468;11.200;2023-02-02T03:03:14;98118.34;;;19.59;37.68
50057;BME280;36875;49.468;11.200;2023-02-02T03:05:51;98143.66;;;19.78;37.82
50057;BME280;36875;49.468;11.200;2023-02-02T03:08:24;98151.34;;;19.76;37.66
50057;BME280;36875;49.468;11.200;2023-02-02T03:10:54;98150.84;;;19.74;37.90
50057;BME280;36875;49.468;11.200;2023-02-02T03:13:21;98159.09;;;19.69;37.81
50057;BME280;36875;49.468;11.200;2023-02-02T03:15:47;98160.19;;;19.68;37.71
50057;BME280;36875;49.468;11.200;2023-02-02T03:18:16;98161.34;;;19.67;37.50
50057;BME280;36875;49.468;11.200;2023-02-02T03:20:42;98140.91;;;19.51;37.85
50057;BME280;36875;49.468;11.200;2023-02-02T03:23:09;98162.53;;;19.61;37.91
50057;BME280;36875;49.468;11.200;2023-02-02T03:25:34;98156.84;;;19.57;38.10
50057;BME280;36875;49.468;11.200;2023-02-02T03:28:00;98162.00;;;19.59;37.82
50057;BME280;36875;49.468;11.200;2023-02-02T03:30:26;98168.59;;;19.58;37.73
50057;BME280;36875;49.468;11.200;2023-02-02T03:32:52;98152.63;;;19.37;37.84
50057;BME280;36875;49.468;11.200;2023-02-02T03:35:19;98170.41;;;19.49;37.53
50057;BME280;36875;49.468;11.200;2023-02-02T03:37:45;98179.09;;;19.51;37.77
50057;BME280;36875;49.468;11.200;2023-02-02T03:40:11;98173.94;;;19.49;37.48
50057;BME280;36875;49.468;11.200;2023-02-02T03:42:36;98171.59;;;19.42;37.68
50057;BME280;36875;49.468;11.200;2023-02-02T03:45:02;98173.22;;;19.43;37.81
50057;BME280;36875;49.468;11.200;2023-02-02T03:47:28;98157.84;;;19.34;37.67
50057;BME280;36875;49.468;11.200;2023-02-02T03:49:53;98168.38;;;19.40;37.66
50057;BME280;36875;49.468;11.200;2023-02-02T03:52:20;98176.84;;;19.39;37.34
50057;BME280;36875;49.468;11.200;2023-02-02T03:54:46;98167.84;;;19.38;37.76
50057;BME280;36875;49.468;11.200;2023-02-02T03:57:11;98179.06;;;19.37;37.82
50057;BME280;36875;49.468;11.200;2023-02-02T03:59:37;98187.34;;;19.32;37.36
50057;BME280;36875;49.468;11.200;2023-02-02T04:02:02;98172.38;;;19.29;37.88
50057;BME280;36875;49.468;11.200;2023-02-02T04:04:28;98175.13;;;19.29;37.42
50057;BME280;36875;49.468;11.200;2023-02-02T04:06:53;98166.44;;;19.27;37.75
50057;BME280;36875;49.468;11.200;2023-02-02T04:09:20;98153.38;;;19.24;37.59
50057;BME280;36875;49.468;11.200;2023-02-02T04:11:46;98148.22;;;19.22;37.64
50057;BME280;36875;49.468;11.200;2023-02-02T04:14:11;98143.75;;;19.13;37.93
50057;BME280;36875;49.468;11.200;2023-02-02T04:16:37;98139.00;;;19.18;37.45
50057;BME280;36875;49.468;11.200;2023-02-02T04:19:02;98148.31;;;19.17;37.69
50057;BME280;36875;49.468;11.200;2023-02-02T04:21:28;98151.34;;;19.16;37.34
50057;BME280;36875;49.468;11.200;2023-02-02T04:23:54;98147.59;;;19.12;37.59
50057;BME280;36875;49.468;11.200;2023-02-02T04:26:21;98147.59;;;19.12;37.85
50057;BME280;36875;49.468;11.200;2023-02-02T04:28:49;98159.63;;;19.11;37.88
50057;BME280;36875;49.468;11.200;2023-02-02T04:31:15;98164.28;;;19.10;37.50
50057;BME280;36875;49.468;11.200;2023-02-02T04:33:40;98177.41;;;19.08;37.89
50057;BME280;36875;49.468;11.200;2023-02-02T04:36:06;98180.22;;;19.03;37.89
50057;BME280;36875;49.468;11.200;2023-02-02T04:38:32;98194.34;;;19.05;37.31
50057;BME280;36875;49.468;11.200;2023-02-02T04:40:57;98201.22;;;19.02;37.85
50057;BME280;36875;49.468;11.200;2023-02-02T04:43:24;98196.66;;;18.98;37.48
50057;BME280;36875;49.468;11.200;2023-02-02T04:45:53;98202.91;;;18.98;37.96
50057;BME280;36875;49.468;11.200;2023-02-02T04:48:21;98207.84;;;18.96;37.94
50057;BME280;36875;49.468;11.200;2023-02-02T04:50:46;98191.56;;;18.91;37.40
50057;BME280;36875;49.468;11.200;2023-02-02T04:53:12;98217.44;;;18.94;37.82
50057;BME280;36875;49.468;11.200;2023-02-02T04:55:37;98211.47;;;18.92;37.71
50057;BME280;36875;49.468;11.200;2023-02-02T04:58:03;98190.38;;;18.78;37.71
50057;BME280;36875;49.468;11.200;2023-02-02T05:00:30;98201.44;;;18.87;37.77
50057;BME280;36875;49.468;11.200;2023-02-02T05:02:55;98200.34;;;18.88;37.43
50057;BME280;36875;49.468;11.200;2023-02-02T05:05:21;98199.84;;;18.86;37.53
50057;BME280;36875;49.468;11.200;2023-02-02T05:07:46;98198.22;;;18.85;37.56
50057;BME280;36875;49.468;11.200;2023-02-02T05:10:12;98200.72;;;18.81;37.71
50057;BME280;36875;49.468;11.200;2023-02-02T05:12:37;98206.97;;;18.82;37.86
50057;BME280;36875;49.468;11.200;2023-02-02T05:15:04;98203.72;;;18.80;37.58
50057;BME280;36875;49.468;11.200;2023-02-02T05:17:31;98201.59;;;18.77;37.74
50057;BME280;36875;49.468;11.200;2023-02-02T05:19:57;98208.94;;;18.76;37.63
50057;BME280;36875;49.468;11.200;2023-02-02T05:22:23;98207.63;;;18.74;37.37
50057;BME280;36875;49.468;11.200;2023-02-02T05:24:48;98218.03;;;18.72;37.72
50057;BME280;36875;49.468;11.200;2023-02-02T05:27:14;98212.84;;;18.70;37.81
50057;BME280;36875;49.468;11.200;2023-02-02T05:29:39;98209.91;;;18.66;37.85
50057;BME280;36875;49.468;11.200;2023-02-02T05:32:05;98219.41;;;18.69;37.64
50057;BME280;36875;49.468;11.200;2023-02-02T05:34:32;98225.19;;;18.67;37.39
50057;BME280;36875;49.468;11.200;2023-02-02T05:36:57;98206.16;;;18.62;37.33
50057;BME280;36875;49.468;11.200;2023-02-02T05:39:22;98221.09;;;18.65;37.73
50057;BME280;36875;49.468;11.200;2023-02-02T05:41:48;98225.25;;;18.62;37.69
50057;BME280;36875;49.468;11.200;2023-02-02T05:44:14;98229.06;;;18.61;37.70
50057;BME280;36875;49.468;11.200;2023-02-02T05:46:39;98230.47;;;18.59;37.69
50057;BME280;36875;49.468;11.200;2023-02-02T05:49:06;98235.13;;;18.58;37.45
50057;BME280;36875;49.468;11.200;2023-02-02T05:51:37;98238.13;;;18.57;37.72
50057;BME280;36875;49.468;11.200;2023-02-02T05:54:05;98243.06;;;18.55;37.57
50057;BME280;36875;49.468;11.200;2023-02-02T05:56:30;98238.72;;;18.54;37.28
50057;BME280;36875;49.468;11.200;2023-02-02T05:58:56;98246.09;;;18.53;37.72
50057;BME280;36875;49.468;11.200;2023-02-02T06:01:21;98240.13;;;18.51;37.43
50057;BME280;36875;49.468;11.200;2023-02-02T06:03:47;98225.28;;;18.38;37.59
50057;BME280;36875;49.468;11.200;2023-02-02T06:06:12;98249.97;;;18.47;37.83
50057;BME280;36875;49.468;11.200;2023-02-02T06:08:39;98243.72;;;18.46;37.49
50057;BME280;36875;49.468;11.200;2023-02-02T06:11:09;98247.00;;;18.43;37.81
50057;BME280;36875;49.468;11.200;2023-02-02T06:13:34;98251.66;;;18.43;37.68
50057;BME280;36875;49.468;11.200;2023-02-02T06:16:00;98248.69;;;18.39;37.43
50057;BME280;36875;49.468;11.200;2023-02-02T06:18:25;98246.81;;;18.40;37.32
50057;BME280;36875;49.468;11.200;2023-02-02T06:20:55;98244.09;;;18.40;37.33
50057;BME280;36875;49.468;11.200;2023-02-02T06:23:21;98240.00;;;18.37;37.81
50057;BME280;36875;49.468;11.200;2023-02-02T06:25:48;98244.94;;;18.35;37.65
50057;BME280;36875;49.468;11.200;2023-02-02T06:28:13;98246.88;;;18.35;37.82
50057;BME280;36875;49.468;11.200;2023-02-02T06:30:38;98241.72;;;18.33;37.41
50057;BME280;36875;49.468;11.200;2023-02-02T06:33:04;98230.34;;;18.26;37.57
50057;BME280;36875;49.468;11.200;2023-02-02T06:35:31;98239.03;;;18.28;37.91
50057;BME280;36875;49.468;11.200;2023-02-02T06:37:57;98240.34;;;18.30;38.23
50057;BME280;36875;49.468;11.200;2023-02-02T06:40:23;98241.75;;;18.28;37.82
50057;BME280;36875;49.468;11.200;2023-02-02T06:42:55;98251.34;;;18.25;37.89
50057;BME280;36875;49.468;11.200;2023-02-02T06:45:21;98249.72;;;18.24;38.17
50057;BME280;36875;49.468;11.200;2023-02-02T06:47:46;98247.22;;;18.28;38.13
50057;BME280;36875;49.468;11.200;2023-02-02T06:50:12;98242.88;;;18.27;38.02
50057;BME280;36875;49.468;11.200;2023-02-02T06:52:37;98251.56;;;18.29;37.96
50057;BME280;36875;49.468;11.200;2023-02-02T06:55:03;98255.28;;;18.38;37.92
50057;BME280;36875;49.468;11.200;2023-02-02T06:57:29;98257.72;;;18.40;37.63
50057;BME280;36875;49.468;11.200;2023-02-02T06:59:56;98256.06;;;18.39;37.21
50057;BME280;36875;49.468;11.200;2023-02-02T07:02:21;98267.94;;;18.48;37.39
50057;BME280;36875;49.468;11.200;2023-02-02T07:04:47;98260.81;;;18.52;37.42
50057;BME280;36875;49.468;11.200;2023-02-02T07:07:13;98262.28;;;18.63;37.24
50057;BME280;36875;49.468;11.200;2023-02-02T07:09:38;98252.84;;;18.56;37.40
50057;BME280;36875;49.468;11.200;2023-02-02T07:12:04;98260.22;;;18.74;37.27
50057;BME280;36875;49.468;11.200;2023-02-02T07:14:30;98258.25;;;18.80;36.67
50057;BME280;36875;49.468;11.200;2023-02-02T07:16:57;98258.72;;;18.87;36.99
50057;BME280;36875;49.468;11.200;2023-02-02T07:19:22;98258.78;;;19.01;36.66
50057;BME280;36875;49.468;11.200;2023-02-02T07:21:48;98256.53;;;19.22;36.90
50057;BME280;36875;49.468;11.200;2023-02-02T07:24:13;98255.44;;;19.23;36.53
50057;BME280;36875;49.468;11.200;2023-02-02T07:26:39;98266.06;;;19.24;36.48
50057;BME280;36875;49.468;11.200;2023-02-02T07:29:05;98272.59;;;19.42;35.86
50057;BME280;36875;49.468;11.200;2023-02-02T07:31:31;98269.34;;;19.40;36.35
50057;BME280;36875;49.468;11.200;2023-02-02T07:33:58;98266.25;;;19.61;35.70
50057;BME280;36875;49.468;11.200;2023-02-02T07:36:24;98269.72;;;19.67;35.94
50057;BME280;36875;49.468;11.200;2023-02-02T07:38:51;98281.41;;;19.86;35.60
50057;BME280;36875;49.468;11.200;2023-02-02T07:41:18;98279.06;;;19.79;35.72
50057;BME280;36875;49.468;11.200;2023-02-02T07:43:45;98271.50;;;19.90;35.93
50057;BME280;36875;49.468;11.200;2023-02-02T07:46:12;98272.34;;;20.18;35.26
50057;BME280;36875;49.468;11.200;2023-02-02T07:48:38;98265.66;;;20.25;35.29
50057;BME280;36875;49.468;11.200;2023-02-02T07:51:07;98268.19;;;20.35;35.11
50057;BME280;36875;49.468;11.200;2023-02-02T07:53:33;98269.81;;;20.64;34.36
50057;BME280;36875;49.468;11.200;2023-02-02T07:56:07;98269.97;;;20.81;34.45
50057;BME280;36875;49.468;11.200;2023-02-02T07:58:32;98275.78;;;21.02;34.39
50057;BME280;36875;49.468;11.200;2023-02-02T08:01:00;98276.66;;;21.11;34.27
50057;BME280;36875;49.468;11.200;2023-02-02T08:03:25;98286.69;;;21.16;34.25
50057;BME280;36875;49.468;11.200;2023-02-02T08:05:51;98281.22;;;21.16;34.28
50057;BME280;36875;49.468;11.200;2023-02-02T08:08:17;98285.56;;;21.17;34.15
50057;BME280;36875;49.468;11.200;2023-02-02T08:10:46;98286.69;;;21.38;33.81
50057;BME280;36875;49.468;11.200;2023-02-02T08:13:12;98285.72;;;21.57;33.73
50057;BME280;36875;49.468;11.200;2023-02-02T08:15:37;98289.69;;;21.73;33.52
50057;BME280;36875;49.468;11.200;2023-02-02T08:18:03;98288.53;;;21.66;33.67
50057;BME280;36875;49.468;11.200;2023-02-02T08:20:31;98287.44;;;21.75;33.69
50057;BME280;36875;49.468;11.200;2023-02-02T08:22:57;98291.94;;;21.71;33.84
50057;BME280;36875;49.468;11.200;2023-02-02T08:25:24;98266.50;;;21.80;33.62
50057;BME280;36875;49.468;11.200;2023-02-02T08:27:52;98274.91;;;22.14;33.40
50057;BME280;36875;49.468;11.200;2023-02-02T08:30:18;98286.31;;;22.39;32.75
50057;BME280;36875;49.468;11.200;2023-02-02T08:32:43;98288.56;;;22.46;32.88
50057;BME280;36875;49.468;11.200;2023-02-02T08:35:11;98286.66;;;22.55;32.69
50057;BME280;36875;49.468;11.200;2023-02-02T08:37:37;98300.72;;;22.54;32.79
50057;BME280;36875;49.468;11.200;2023-02-02T08:40:03;98290.41;;;22.59;32.75
50057;BME280;36875;49.468;11.200;2023-02-02T08:42:30;98293.66;;;22.70;32.70
50057;BME280;36875;49.468;11.200;2023-02-02T08:44:56;98299.63;;;22.72;32.70
50057;BME280;36875;49.468;11.200;2023-02-02T08:47:21;98280.88;;;22.65;32.50
50057;BME280;36875;49.468;11.200;2023-02-02T08:49:47;98297.06;;;22.76;32.68
50057;BME280;36875;49.468;11.200;2023-02-02T08:52:12;98291.75;;;22.79;32.29
50057;BME280;36875;49.468;11.200;2023-02-02T08:54:38;98283.81;;;22.78;32.35
50057;BME280;36875;49.468;11.200;2023-02-02T08:57:03;98289.63;;;22.94;32.21
50057;BME280;36875;49.468;11.200;2023-02-02T08:59:30;98296.28;;;22.93;32.28
50057;BME280;36875;49.468;11.200;2023-02-02T09:01:56;98290.31;;;22.90;32.48
50057;BME280;36875;49.468;11.200;2023-02-02T09:04:21;98293.88;;;23.08;31.93
50057;BME280;36875;49.468;11.200;2023-02-02T09:06:47;98289.16;;;22.91;32.40
50057;BME280;36875;49.468;11.200;2023-02-02T09:09:14;98273.97;;;22.85;32.47
50057;BME280;36875;49.468;11.200;2023-02-02T09:11:40;98295.31;;;22.88;32.20
50057;BME280;36875;49.468;11.200;2023-02-02T09:14:06;98306.44;;;22.92;32.39
50057;BME280;36875;49.468;11.200;2023-02-02T09:16:34;98295.13;;;22.76;32.31
50057;BME280;36875;49.468;11.200;2023-02-02T09:19:00;98304.31;;;22.80;32.53
50057;BME280;36875;49.468;11.200;2023-02-02T09:21:25;98303.19;;;22.90;32.29
50057;BME280;36875;49.468;11.200;2023-02-02T09:23:52;98297.88;;;22.85;32.33
50057;BME280;36875;49.468;11.200;2023-02-02T09:26:22;98307.88;;;22.72;32.71
50057;BME280;36875;49.468;11.200;2023-02-02T09:28:50;98307.06;;;22.89;32.32
50057;BME280;36875;49.468;11.200;2023-02-02T09:31:16;98293.81;;;22.65;32.76
50057;BME280;36875;49.468;11.200;2023-02-02T09:33:43;98304.44;;;22.58;32.51
50057;BME280;36875;49.468;11.200;2023-02-02T09:36:11;98303.13;;;22.55;32.75
50057;BME280;36875;49.468;11.200;2023-02-02T09:38:38;98298.72;;;22.37;32.71
50057;BME280;36875;49.468;11.200;2023-02-02T09:44:28;98306.72;;;22.73;32.33
50057;BME280;36875;49.468;11.200;2023-02-02T09:47:07;98283.75;;;22.51;32.60
50057;BME280;36875;49.468;11.200;2023-02-02T09:49:48;98303.19;;;22.73;32.72
50057;BME280;36875;49.468;11.200;2023-02-02T09:52:21;98305.59;;;22.74;32.56
50057;BME280;36875;49.468;11.200;2023-02-02T09:54:50;98317.88;;;22.85;32.25
50057;BME280;36875;49.468;11.200;2023-02-02T09:57:22;98296.22;;;22.75;32.48
50057;BME280;36875;49.468;11.200;2023-02-02T09:59:51;98318.84;;;22.89;32.58
50057;BME280;36875;49.468;11.200;2023-02-02T10:02:22;98307.69;;;22.77;32.55
50057;BME280;36875;49.468;11.200;2023-02-02T10:04:52;98314.34;;;23.02;32.54
50057;BME280;36875;49.468;11.200;2023-02-02T10:07:23;98307.75;;;23.12;32.25
50057;BME280;36875;49.468;11.200;2023-02-02T10:09:55;98318.88;;;22.98;32.40
50057;BME280;36875;49.468;11.200;2023-02-02T10:12:30;98306.50;;;23.18;32.16
50057;BME280;36875;49.468;11.200;2023-02-02T10:15:01;98317.28;;;23.58;31.44
50057;BME280;36875;49.468;11.200;2023-02-02T10:17:40;98304.03;;;23.60;31.40
50057;BME280;36875;49.468;11.200;2023-02-02T10:20:21;98319.50;;;23.91;30.98
50057;BME280;36875;49.468;11.200;2023-02-02T10:22:50;98315.78;;;23.96;30.97
50057;BME280;36875;49.468;11.200;2023-02-02T10:25:16;98296.56;;;23.87;30.68
50057;BME280;36875;49.468;11.200;2023-02-02T10:27:48;98316.75;;;24.00;30.84
50057;BME280;36875;49.468;11.200;2023-02-02T10:30:22;98312.50;;;24.11;30.97
50057;BME280;36875;49.468;11.200;2023-02-02T10:32:58;98309.78;;;24.02;30.96
50057;BME280;36875;49.468;11.200;2023-02-02T10:35:34;98310.09;;;24.10;30.70
50057;BME280;36875;49.468;11.200;2023-02-02T10:38:09;98305.53;;;24.14;30.82
50057;BME280;36875;49.468;11.200;2023-02-02T10:40:46;98300.03;;;24.14;30.77
50057;BME280;36875;49.468;11.200;2023-02-02T10:43:46;98301.72;;;23.97;30.90
50057;BME280;36875;49.468;11.200;2023-02-02T10:46:19;98303.44;;;24.11;30.75
50057;BME280;36875;49.468;11.200;2023-02-02T10:48:47;98290.66;;;24.15;30.73
50057;BME280;36875;49.468;11.200;2023-02-02T10:51:19;98306.00;;;24.24;30.91
50057;BME280;36875;49.468;11.200;2023-02-02T10:53:50;98294.69;;;24.17;30.84
50057;BME280;36875;49.468;11.200;2023-02-02T10:56:20;98304.34;;;24.32;30.87
50057;BME280;36875;49.468;11.200;2023-02-02T10:58:52;98294.13;;;24.33;30.80
50057;BME280;36875;49.468;11.200;2023-02-02T11:01:21;98288.09;;;24.10;30.86
50057;BME280;36875;49.468;11.200;2023-02-02T11:03:47;98293.00;;;23.78;30.70
50057;BME280;36875;49.468;11.200;2023-02-02T11:06:13;98291.25;;;23.56;30.27
50057;BME280;36875;49.468;11.200;2023-02-02T11:08:59;98294.69;;;23.44;30.53
50057;BME280;36875;49.468;11.200;2023-02-02T11:11:30;98296.78;;;23.38;30.42
50057;BME280;36875;49.468;11.200;2023-02-02T11:14:00;98288.88;;;23.37;30.60
50057;BME280;36875;49.468;11.200;2023-02-02T11:16:30;98292.41;;;23.37;30.87
50057;BME280;36875;49.468;11.200;2023-02-02T11:18:56;98296.97;;;23.33;30.74
50057;BME280;36875;49.468;11.200;2023-02-02T11:21:24;98296.47;;;23.22;30.95
50057;BME280;36875;49.468;11.200;2023-02-02T11:23:57;98293.25;;;23.20;31.14
50057;BME280;36875;49.468;11.200;2023-02-02T11:26:26;98301.63;;;23.15;31.32
50057;BME280;36875;49.468;11.200;2023-02-02T11:29:04;98298.25;;;23.18;31.48
50057;BME280;36875;49.468;11.200;2023-02-02T11:31:33;98282.09;;;23.17;31.44
50057;BME280;36875;49.468;11.200;2023-02-02T11:34:15;98290.31;;;23.34;31.15
50057;BME280;36875;49.468;11.200;2023-02-02T11:36:56;98297.59;;;23.39;31.73
50057;BME280;36875;49.468;11.200;2023-02-02T11:39:22;98300.34;;;23.47;31.27
50057;BME280;36875;49.468;11.200;2023-02-02T11:41:49;98269.81;;;23.49;31.18
50057;BME280;36875;49.468;11.200;2023-02-02T11:44:20;98284.94;;;23.73;30.92
50057;BME280;36875;49.468;11.200;2023-02-02T11:46:48;98287.72;;;23.64;31.49
50057;BME280;36875;49.468;11.200;2023-02-02T11:49:17;98265.09;;;23.50;31.44
50057;BME280;36875;49.468;11.200;2023-02-02T11:51:55;98278.50;;;23.60;31.49
50057;BME280;36875;49.468;11.200;2023-02-02T11:54:25;98278.31;;;23.65;31.31
50057;BME280;36875;49.468;11.200;2023-02-02T11:56:59;98258.75;;;23.66;31.55
50057;BME280;36875;49.468;11.200;2023-02-02T11:59:30;98259.06;;;23.74;31.30
50057;BME280;36875;49.468;11.200;2023-02-02T12:02:25;98266.03;;;23.80;31.36
50057;BME280;36875;49.468;11.200;2023-02-02T12:04:53;98265.84;;;23.85;31.36
50057;BME280;36875;49.468;11.200;2023-02-02T12:07:23;98272.16;;;23.85;31.52
50057;BME280;36875;49.468;11.200;2023-02-02T12:09:49;98251.47;;;23.88;31.20
50057;BME280;36875;49.468;11.200;2023-02-02T12:12:30;98267.22;;;24.09;31.13
50057;BME280;36875;49.468;11.200;2023-02-02T12:15:10;98260.03;;;24.25;30.87
50057;BME280;36875;49.468;11.200;2023-02-02T12:17:42;98254.19;;;23.97;31.22
50057;BME280;36875;49.468;11.200;2023-02-02T12:20:20;98255.94;;;24.01;31.60
50057;BME280;36875;49.468;11.200;2023-02-02T12:25:52;98241.59;;;23.87;31.66
50057;BME280;36875;49.468;11.200;2023-02-02T12:28:29;98246.78;;;23.80;31.63
50057;BME280;36875;49.468;11.200;2023-02-02T12:31:07;98260.50;;;23.89;31.62
50057;BME280;36875;49.468;11.200;2023-02-02T12:33:42;98260.22;;;23.81;31.82
50057;BME280;36875;49.468;11.200;2023-02-02T12:36:23;98270.94;;;24.04;31.52
50057;BME280;36875;49.468;11.200;2023-02-02T12:39:12;98274.69;;;23.99;31.59
50057;BME280;36875;49.468;11.200;2023-02-02T12:42:05;98265.69;;;24.29;31.38
50057;BME280;36875;49.468;11.200;2023-02-02T12:44:47;98259.38;;;24.28;31.46
50057;BME280;36875;49.468;11.200;2023-02-02T12:47:18;98272.03;;;24.20;31.64
50057;BME280;36875;49.468;11.200;2023-02-02T12:49:58;98284.28;;;24.32;31.25
50057;BME280;36875;49.468;11.200;2023-02-02T12:52:36;98266.38;;;24.17;31.41
50057;BME280;36875;49.468;11.200;2023-02-02T12:55:17;98276.25;;;24.18;31.42
50057;BME280;36875;49.468;11.200;2023-02-02T12:57:52;98276.22;;;24.27;31.48
50057;BME280;36875;49.468;11.200;2023-02-02T13:00:39;98296.59;;;24.25;31.41
50057;BME280;36875;49.468;11.200;2023-02-02T13:03:20;98298.38;;;24.30;31.17
50057;BME280;36875;49.468;11.200;2023-02-02T13:05:57;98295.78;;;24.25;31.16
50057;BME280;36875;49.468;11.200;2023-02-02T13:08:30;98293.22;;;24.20;31.33
50057;BME280;36875;49.468;11.200;2023-02-02T13:11:02;98287.72;;;24.20;31.11
50057;BME280;36875;49.468;11.200;2023-02-02T13:13:30;98289.66;;;24.19;31.15
50057;BME280;36875;49.468;11.200;2023-02-02T13:16:03;98298.91;;;24.15;31.45